Time;durP1;ratioP1;P1;durP2;ratioP2;P2;SDS_P1;SDS_P2;PMS_P1;PMS_P2;Temp;Humidity;BMP_temperature;BMP_pressure;BME280_temperature;BME280_humidity;BME280_pressure;Samples;Min_cycle;Max_cycle;Signal;HPM_P1;HPM_P2
2023/06/04 00:00:42;;;;;;;8.00;4.73;;;15.90;32.50;;;;;;4992719;28;20569;-55
2023/06/04 00:03:08;;;;;;;5.57;4.30;;;15.90;32.50;;;;;;4992742;28;20465;-57
2023/06/04 00:05:34;;;;;;;7.40;4.70;;;15.90;32.30;;;;;;4992774;28;20187;-57
2023/06/04 00:08:00;;;;;;;4.83;4.30;;;15.80;32.20;;;;;;4992998;28;20437;-55
2023/06/04 00:10:26;;;;;;;5.30;4.00;;;15.80;32.10;;;;;;4992587;28;20406;-54
2023/06/04 00:12:51;;;;;;;6.40;4.00;;;15.80;32.70;;;;;;4975364;28;20178;-58
2023/06/04 00:15:17;;;;;;;4.60;4.10;;;15.80;32.80;;;;;;4992722;28;20426;-57
2023/06/04 00:17:44;;;;;;;5.50;4.33;;;15.80;32.50;;;;;;4975474;28;20195;-54
2023/06/04 00:20:10;;;;;;;6.85;4.90;;;15.80;32.20;;;;;;4992366;28;20916;-55
2023/06/04 00:22:36;;;;;;;7.93;6.45;;;15.80;32.80;;;;;;4992597;28;20213;-57
2023/06/04 00:25:03;;;;;;;5.40;4.90;;;15.80;33.10;;;;;;4992562;28;20550;-55
2023/06/04 00:27:28;;;;;;;7.57;5.10;;;15.70;33.00;;;;;;4992535;28;20183;-55
2023/06/04 00:29:54;;;;;;;6.27;5.67;;;15.70;32.90;;;;;;4992492;28;20175;-58
2023/06/04 00:32:20;;;;;;;9.53;7.50;;;15.60;32.90;;;;;;4992735;28;20519;-57
2023/06/04 00:34:57;;;;;;;7.00;6.10;;;15.60;32.50;;;;;;4992436;28;20175;-55
2023/06/04 00:37:24;;;;;;;8.20;5.50;;;15.50;33.00;;;;;;4992745;28;20210;-56
2023/06/04 00:39:50;;;;;;;11.90;5.45;;;15.50;32.80;;;;;;4992135;28;20179;-57
2023/06/04 00:42:16;;;;;;;8.18;5.50;;;15.50;33.00;;;;;;4974875;28;20182;-57
2023/06/04 00:44:44;;;;;;;7.32;5.53;;;15.50;33.20;;;;;;4992502;28;20167;-58
2023/06/04 00:47:12;;;;;;;8.23;5.13;;;15.40;33.20;;;;;;4992239;28;20688;-56
2023/06/04 00:49:38;;;;;;;9.13;5.65;;;15.40;33.30;;;;;;4992149;28;20190;-54
2023/06/04 00:52:05;;;;;;;11.50;7.63;;;15.40;33.20;;;;;;4992536;28;20186;-55
2023/06/04 00:54:32;;;;;;;8.45;6.65;;;15.40;33.10;;;;;;4992480;28;20183;-57
2023/06/04 00:56:58;;;;;;;7.70;6.45;;;15.30;33.40;;;;;;4994514;28;20226;-54
2023/06/04 00:59:24;;;;;;;7.83;6.37;;;15.20;33.30;;;;;;4996045;28;20203;-56
2023/06/04 01:02:06;;;;;;;7.13;5.90;;;15.20;33.40;;;;;;4996177;28;20501;-55
2023/06/04 01:04:53;;;;;;;6.90;5.05;;;15.20;33.20;;;;;;4980594;28;20406;-57
2023/06/04 01:07:19;;;;;;;6.38;4.55;;;15.10;33.60;;;;;;4996187;28;20203;-55
2023/06/04 01:09:45;;;;;;;6.70;4.07;;;15.00;33.60;;;;;;4995744;28;20797;-54
2023/06/04 01:12:11;;;;;;;5.90;3.60;;;15.00;33.40;;;;;;4995924;28;20403;-56
2023/06/04 01:14:37;;;;;;;3.63;3.20;;;15.00;33.00;;;;;;4996133;28;20407;-58
2023/06/04 01:17:28;;;;;;;4.90;4.25;;;15.00;33.10;;;;;;4995982;28;20249;-55
2023/06/04 01:20:15;;;;;;;5.95;4.00;;;15.00;33.80;;;;;;4995465;28;20210;-55
2023/06/04 01:22:59;;;;;;;4.70;3.00;;;15.00;33.70;;;;;;4995684;28;20203;-55
2023/06/04 01:25:31;;;;;;;8.00;3.55;;;15.00;33.80;;;;;;4995620;28;20183;-56
2023/06/04 01:27:58;;;;;;;3.50;2.97;;;15.00;33.80;;;;;;4995562;28;20690;-57
2023/06/04 01:30:26;;;;;;;4.72;4.30;;;14.90;33.80;;;;;;4995328;28;20191;-57
2023/06/04 01:32:53;;;;;;;3.53;3.20;;;14.90;33.90;;;;;;4995538;28;20685;-58
2023/06/04 01:35:20;;;;;;;3.65;3.03;;;14.90;34.00;;;;;;4995533;28;20254;-55
2023/06/04 01:37:46;;;;;;;5.90;3.58;;;14.80;34.10;;;;;;4995361;28;20688;-55
2023/06/04 01:40:12;;;;;;;4.27;3.50;;;14.80;34.20;;;;;;4995145;28;20183;-57
2023/06/04 01:42:38;;;;;;;4.43;3.35;;;14.70;34.00;;;;;;4995526;28;20477;-54
2023/06/04 01:45:04;;;;;;;4.33;3.87;;;14.70;33.90;;;;;;4995335;28;20243;-55
2023/06/04 01:47:30;;;;;;;5.28;3.40;;;14.70;33.90;;;;;;4995305;28;20856;-58
2023/06/04 01:49:55;;;;;;;5.70;3.20;;;14.60;33.90;;;;;;4995101;28;20180;-55
2023/06/04 01:52:21;;;;;;;7.80;4.07;;;14.60;33.80;;;;;;4995259;28;20904;-57
2023/06/04 01:54:52;;;;;;;4.13;3.73;;;14.50;34.30;;;;;;4995160;28;20254;-53
2023/06/04 01:57:20;;;;;;;4.55;3.42;;;14.40;34.30;;;;;;4995388;28;20209;-55
2023/06/04 01:59:46;;;;;;;7.10;3.15;;;14.40;34.10;;;;;;4977596;28;20658;-57
2023/06/04 02:02:12;;;;;;;4.25;3.05;;;14.50;34.10;;;;;;4995061;28;20176;-55
2023/06/04 02:04:41;;;;;;;4.22;3.38;;;14.50;34.50;;;;;;4994912;28;20673;-55
2023/06/04 02:07:10;;;;;;;3.67;3.20;;;14.40;34.20;;;;;;4994473;28;20215;-57
2023/06/04 02:09:37;;;;;;;5.90;3.40;;;14.30;34.40;;;;;;4994103;28;20720;-55
2023/06/04 02:12:03;;;;;;;6.60;3.95;;;14.20;34.50;;;;;;4977558;28;20215;-59
2023/06/04 02:14:29;;;;;;;5.65;3.58;;;14.10;34.40;;;;;;4994965;28;20198;-57
2023/06/04 02:16:57;;;;;;;4.70;3.08;;;14.10;34.60;;;;;;4977424;28;20195;-55
2023/06/04 02:19:27;;;;;;;4.78;3.90;;;14.00;34.60;;;;;;4994538;28;20190;-54
2023/06/04 02:21:53;;;;;;;3.30;2.85;;;14.00;34.50;;;;;;4994598;28;20183;-57
2023/06/04 02:24:20;;;;;;;4.43;3.08;;;14.00;34.60;;;;;;4994688;28;20195;-58
2023/06/04 02:26:46;;;;;;;3.88;2.88;;;13.90;34.50;;;;;;4994907;28;20199;-56
2023/06/04 02:29:12;;;;;;;3.58;3.03;;;13.90;34.40;;;;;;4976823;28;20654;-57
2023/06/04 02:31:38;;;;;;;3.43;3.00;;;13.90;34.40;;;;;;4994769;28;20179;-57
2023/06/04 02:34:03;;;;;;;4.27;3.40;;;14.00;34.60;;;;;;4994497;28;20905;-54
2023/06/04 02:36:30;;;;;;;5.77;2.83;;;14.00;34.80;;;;;;4994341;28;20199;-57
2023/06/04 02:38:56;;;;;;;4.40;2.90;;;14.00;34.80;;;;;;4994236;28;20183;-57
2023/06/04 02:41:22;;;;;;;4.70;2.63;;;13.90;34.60;;;;;;4994295;28;20175;-53
2023/06/04 02:43:48;;;;;;;3.92;3.03;;;13.90;34.60;;;;;;4994094;28;20469;-55
2023/06/04 02:46:14;;;;;;;16.03;5.07;;;13.90;34.90;;;;;;4994433;28;20278;-57
2023/06/04 02:48:40;;;;;;;17.15;3.97;;;13.90;35.00;;;;;;4994160;28;20174;-54
2023/06/04 02:51:09;;;;;;;6.83;3.53;;;13.80;34.70;;;;;;4993809;28;20537;-54
2023/06/04 02:53:36;;;;;;;8.95;3.45;;;13.70;34.90;;;;;;4994251;28;20199;-57
2023/06/04 02:56:01;;;;;;;5.63;3.33;;;13.70;35.00;;;;;;4993942;28;20270;-55
2023/06/04 02:58:28;;;;;;;4.13;3.17;;;13.70;35.10;;;;;;4993897;28;20254;-60
2023/06/04 03:00:55;;;;;;;4.78;3.40;;;13.70;35.20;;;;;;4993720;28;20664;-58
2023/06/04 03:03:21;;;;;;;6.22;3.05;;;13.70;35.10;;;;;;4994029;28;20207;-54
2023/06/04 03:05:47;;;;;;;3.97;3.45;;;13.70;35.30;;;;;;4993790;28;20306;-58
2023/06/04 03:08:13;;;;;;;5.05;3.55;;;13.70;35.50;;;;;;4976503;28;20283;-54
2023/06/04 03:10:39;;;;;;;17.33;4.23;;;13.70;35.40;;;;;;4993659;28;20191;-55
2023/06/04 03:13:05;;;;;;;3.83;3.50;;;13.70;35.20;;;;;;4994109;28;20414;-59
2023/06/04 03:15:30;;;;;;;3.93;3.07;;;13.70;35.20;;;;;;4993720;28;20175;-55
2023/06/04 03:17:57;;;;;;;4.40;2.80;;;13.70;35.20;;;;;;4993574;28;20203;-55
2023/06/04 03:20:25;;;;;;;4.00;3.20;;;13.60;36.00;;;;;;4993397;28;20171;-58
2023/06/04 03:22:52;;;;;;;3.40;3.08;;;13.60;35.40;;;;;;4993433;28;20207;-58
2023/06/04 03:25:17;;;;;;;7.25;3.53;;;13.60;35.50;;;;;;4993578;28;20180;-54
2023/06/04 03:27:43;;;;;;;3.33;2.80;;;13.50;35.50;;;;;;4993427;28;20330;-59
2023/06/04 03:30:09;;;;;;;5.80;3.40;;;13.50;35.60;;;;;;4993281;28;20180;-58
2023/06/04 03:32:35;;;;;;;4.78;3.08;;;13.50;35.80;;;;;;4993405;28;20266;-54
2023/06/04 03:35:02;;;;;;;3.40;3.10;;;13.50;35.90;;;;;;4993437;28;20700;-55
2023/06/04 03:37:28;;;;;;;4.63;3.55;;;13.50;35.90;;;;;;4993488;28;20422;-55
2023/06/04 03:39:54;;;;;;;4.03;3.13;;;13.50;35.80;;;;;;4993089;28;20294;-57
2023/06/04 03:42:20;;;;;;;3.57;3.27;;;13.50;36.00;;;;;;4993075;28;20183;-55
2023/06/04 03:44:46;;;;;;;3.70;2.87;;;13.60;35.90;;;;;;4993310;28;20175;-55
2023/06/04 03:47:12;;;;;;;4.87;3.50;;;13.60;35.60;;;;;;4975607;28;20436;-56
2023/06/04 03:49:37;;;;;;;4.20;3.60;;;13.70;35.90;;;;;;4993171;28;20414;-55
2023/06/04 03:52:03;;;;;;;3.87;2.97;;;13.70;35.80;;;;;;4993367;28;20183;-55
2023/06/04 03:54:30;;;;;;;4.90;3.30;;;13.70;35.80;;;;;;4993045;28;20179;-58
2023/06/04 03:56:56;;;;;;;3.60;3.10;;;13.80;35.70;;;;;;4992839;28;20281;-54
2023/06/04 03:59:22;;;;;;;2.90;2.60;;;13.80;36.00;;;;;;4993067;28;20599;-57
2023/06/04 04:01:47;;;;;;;3.70;3.27;;;13.80;36.00;;;;;;4992841;28;20202;-55
2023/06/04 04:04:13;;;;;;;4.43;3.60;;;13.90;36.10;;;;;;4993151;28;20209;-56
2023/06/04 04:06:39;;;;;;;3.20;2.90;;;13.90;35.80;;;;;;4992793;28;20207;-57
2023/06/04 04:09:06;;;;;;;3.80;2.97;;;13.90;35.90;;;;;;4992655;28;20769;-54
2023/06/04 04:11:32;;;;;;;3.40;2.55;;;14.00;35.80;;;;;;4992633;28;20237;-58
2023/06/04 04:13:58;;;;;;;3.63;2.88;;;14.00;35.90;;;;;;4992890;28;20171;-55
2023/06/04 04:16:25;;;;;;;5.10;2.90;;;14.10;36.00;;;;;;4992634;28;20207;-56
2023/06/04 04:18:51;;;;;;;3.72;3.30;;;14.20;35.90;;;;;;4993002;28;20493;-59
2023/06/04 04:21:16;;;;;;;3.43;2.23;;;14.20;35.80;;;;;;4992524;28;20278;-55
2023/06/04 04:23:44;;;;;;;4.40;3.10;;;14.30;35.80;;;;;;4992725;28;20209;-58
2023/06/04 04:26:10;;;;;;;4.25;3.65;;;14.40;35.60;;;;;;4992610;28;20191;-58
2023/06/04 04:28:36;;;;;;;5.77;3.43;;;14.50;35.30;;;;;;4992857;28;20326;-54
2023/06/04 04:31:02;;;;;;;4.90;2.83;;;14.60;34.90;;;;;;4994367;28;20697;-58
2023/06/04 04:33:36;;;;;;;4.73;3.33;;;14.60;35.00;;;;;;4999381;28;20179;-55
2023/06/04 04:36:02;;;;;;;3.78;2.75;;;14.70;35.10;;;;;;4999212;28;20159;-54
2023/06/04 04:38:28;;;;;;;5.23;3.53;;;14.90;35.20;;;;;;4999060;28;20186;-58
2023/06/04 04:40:55;;;;;;;3.03;2.33;;;14.90;35.20;;;;;;4998987;28;20445;-55
2023/06/04 04:43:30;;;;;;;3.67;3.25;;;15.00;35.00;;;;;;4999252;28;20493;-55
2023/06/04 04:45:55;;;;;;;5.50;3.25;;;15.10;35.20;;;;;;4998793;28;20171;-55
2023/06/04 04:48:21;;;;;;;4.47;3.50;;;15.20;34.90;;;;;;4998842;28;20185;-55
2023/06/04 04:50:47;;;;;;;3.53;3.23;;;15.30;35.10;;;;;;4998769;28;20278;-58
2023/06/04 04:53:13;;;;;;;4.33;3.40;;;15.30;34.80;;;;;;4998848;28;20187;-60
2023/06/04 04:55:38;;;;;;;4.07;3.20;;;15.40;34.40;;;;;;4998833;28;20182;-54
2023/06/04 04:58:05;;;;;;;2.83;2.53;;;15.50;34.40;;;;;;4998709;28;20572;-54
2023/06/04 05:00:31;;;;;;;2.33;1.90;;;15.60;34.50;;;;;;4998762;28;20253;-57
2023/06/04 05:02:57;;;;;;;2.80;2.20;;;15.70;34.10;;;;;;4981211;28;20688;-57
2023/06/04 05:05:23;;;;;;;3.25;2.95;;;15.70;34.20;;;;;;4981381;28;20198;-55
2023/06/04 05:07:49;;;;;;;5.13;3.10;;;15.80;33.90;;;;;;4998705;28;20744;-55
2023/06/04 05:10:15;;;;;;;3.77;2.97;;;15.90;33.90;;;;;;4998490;28;20179;-54
2023/06/04 05:12:54;;;;;;;4.23;2.93;;;16.00;33.60;;;;;;4998812;28;20480;-56
2023/06/04 05:15:20;;;;;;;3.25;2.88;;;16.10;33.60;;;;;;4998863;28;20266;-55
2023/06/04 05:17:47;;;;;;;2.72;2.50;;;16.10;33.00;;;;;;4998674;28;20245;-55
2023/06/04 05:20:14;;;;;;;2.92;2.65;;;16.20;32.90;;;;;;4964688;28;20175;-58
2023/06/04 05:22:40;;;;;;;4.78;2.88;;;16.20;32.60;;;;;;4998554;28;20213;-55
2023/06/04 05:25:08;;;;;;;3.83;2.60;;;16.20;33.00;;;;;;4998505;28;20179;-55
2023/06/04 05:27:35;;;;;;;3.47;3.17;;;16.30;32.90;;;;;;4998849;28;20517;-56
2023/06/04 05:30:02;;;;;;;2.70;2.50;;;16.40;32.50;;;;;;4998612;28;20187;-55
2023/06/04 05:32:32;;;;;;;4.38;2.97;;;16.50;32.70;;;;;;4998548;28;20175;-60
2023/06/04 05:34:59;;;;;;;2.60;2.40;;;16.60;33.50;;;;;;4998528;28;20179;-55
2023/06/04 05:37:28;;;;;;;7.68;3.58;;;16.70;32.50;;;;;;4998448;28;20195;-55
2023/06/04 05:39:55;;;;;;;4.55;2.45;;;16.80;31.60;;;;;;4998232;28;20179;-59
2023/06/04 05:42:21;;;;;;;4.68;2.90;;;16.90;32.10;;;;;;4997529;28;20172;-53
2023/06/04 05:44:48;;;;;;;3.20;2.70;;;17.00;31.30;;;;;;4995522;28;20182;-55
2023/06/04 05:47:15;;;;;;;4.03;2.80;;;16.90;31.40;;;;;;4995215;28;20472;-57
2023/06/04 05:49:40;;;;;;;2.88;2.40;;;17.00;31.40;;;;;;4977601;28;20380;-56
2023/06/04 05:52:06;;;;;;;3.50;3.20;;;17.10;31.00;;;;;;4978031;28;20702;-56
2023/06/04 05:54:32;;;;;;;3.67;3.20;;;17.00;30.60;;;;;;4995487;28;20210;-54
2023/06/04 05:56:58;;;;;;;3.63;2.78;;;17.00;30.90;;;;;;4995116;28;20331;-57
2023/06/04 05:59:24;;;;;;;3.67;3.27;;;17.00;31.20;;;;;;4994875;28;20278;-55
2023/06/04 06:01:50;;;;;;;4.23;2.87;;;17.20;31.50;;;;;;4995328;28;20422;-59
2023/06/04 06:04:16;;;;;;;5.38;4.43;;;17.30;31.50;;;;;;4977496;28;20199;-55
2023/06/04 06:06:43;;;;;;;5.63;3.30;;;17.40;31.10;;;;;;4994662;28;20218;-55
2023/06/04 06:09:10;;;;;;;4.65;2.40;;;17.60;31.20;;;;;;4994829;28;20840;-58
2023/06/04 06:11:36;;;;;;;3.00;2.70;;;17.80;31.30;;;;;;4995075;28;20179;-54
2023/06/04 06:14:02;;;;;;;4.35;3.20;;;17.90;31.40;;;;;;4994836;28;20187;-55
2023/06/04 06:16:28;;;;;;;8.40;2.80;;;18.20;31.30;;;;;;4995010;28;20207;-59
2023/06/04 06:18:53;;;;;;;5.80;2.97;;;18.30;30.80;;;;;;4994750;28;20713;-58
2023/06/04 06:21:20;;;;;;;4.40;3.00;;;18.40;30.80;;;;;;4994491;28;20421;-54
2023/06/04 06:23:46;;;;;;;3.67;2.65;;;18.40;29.00;;;;;;4994560;28;20473;-55
2023/06/04 06:26:12;;;;;;;3.15;2.72;;;18.40;29.60;;;;;;4994842;28;20227;-54
2023/06/04 06:28:38;;;;;;;3.95;3.10;;;18.40;28.40;;;;;;4977444;28;20179;-55
2023/06/04 06:31:04;;;;;;;4.10;3.07;;;18.40;28.70;;;;;;4994366;28;20222;-59
2023/06/04 06:33:31;;;;;;;3.83;2.80;;;18.50;28.90;;;;;;4994581;28;20629;-55
2023/06/04 06:35:59;;;;;;;5.35;2.70;;;18.60;28.20;;;;;;4994197;28;20226;-54
2023/06/04 06:38:26;;;;;;;4.18;3.70;;;18.70;28.80;;;;;;4994399;28;20653;-58
2023/06/04 06:40:52;;;;;;;4.63;2.67;;;18.90;29.10;;;;;;4994277;28;20798;-55
2023/06/04 06:43:18;;;;;;;3.17;2.53;;;19.10;28.60;;;;;;4994471;28;20585;-56
2023/06/04 06:45:44;;;;;;;2.47;1.93;;;19.20;28.00;;;;;;4994548;28;20171;-57
2023/06/04 06:48:10;;;;;;;5.17;2.90;;;19.30;26.90;;;;;;4994411;28;20739;-55
2023/06/04 06:50:36;;;;;;;4.97;2.57;;;19.30;26.60;;;;;;4994122;28;20401;-57
2023/06/04 06:53:03;;;;;;;2.50;2.30;;;19.40;26.20;;;;;;4994246;28;20171;-59
2023/06/04 06:55:28;;;;;;;3.00;2.00;;;19.50;26.30;;;;;;4993502;28;20422;-55
2023/06/04 06:57:54;;;;;;;3.13;2.53;;;19.60;26.40;;;;;;4994089;28;20207;-57
2023/06/04 07:00:20;;;;;;;3.33;2.40;;;19.60;26.70;;;;;;4993787;28;20534;-58
2023/06/04 07:02:46;;;;;;;3.40;2.43;;;19.70;26.60;;;;;;4976479;28;20234;-55
2023/06/04 07:05:14;;;;;;;4.17;3.17;;;19.90;26.30;;;;;;4993871;28;20187;-56
2023/06/04 07:07:40;;;;;;;3.22;2.30;;;20.00;26.90;;;;;;4993879;28;20449;-57
2023/06/04 07:10:06;;;;;;;3.80;3.10;;;20.10;26.30;;;;;;4993530;28;20641;-56
2023/06/04 07:12:32;;;;;;;3.37;2.30;;;20.20;25.80;;;;;;4993810;28;20182;-55
2023/06/04 07:14:57;;;;;;;2.57;2.37;;;20.20;25.90;;;;;;4993783;28;20413;-57
2023/06/04 07:17:23;;;;;;;3.70;2.40;;;20.30;26.10;;;;;;4993921;28;20195;-58
2023/06/04 07:19:49;;;;;;;3.23;2.50;;;20.40;26.00;;;;;;4993343;28;20653;-56
2023/06/04 07:22:17;;;;;;;3.83;2.53;;;20.60;27.00;;;;;;4993786;28;20187;-55
2023/06/04 07:24:43;;;;;;;5.20;3.15;;;20.70;26.70;;;;;;4993515;28;20179;-58
2023/06/04 07:27:13;;;;;;;2.43;2.23;;;20.90;27.10;;;;;;4993407;28;20198;-57
2023/06/04 07:29:39;;;;;;;4.05;2.70;;;21.10;27.00;;;;;;4975847;28;20178;-56
2023/06/04 07:32:05;;;;;;;3.20;2.47;;;21.40;26.90;;;;;;4993310;28;20183;-55
2023/06/04 07:34:31;;;;;;;3.22;2.28;;;21.60;26.90;;;;;;4993260;28;20501;-56
2023/06/04 07:36:57;;;;;;;2.97;2.35;;;21.70;25.60;;;;;;4993236;28;20669;-56
2023/06/04 07:39:23;;;;;;;3.87;2.23;;;21.80;26.00;;;;;;4993166;28;20237;-58
2023/06/04 07:41:49;;;;;;;4.37;2.50;;;22.00;25.70;;;;;;4993240;28;20179;-56
2023/06/04 07:44:15;;;;;;;4.03;2.80;;;22.10;25.30;;;;;;4993164;28;20832;-55
2023/06/04 07:46:40;;;;;;;6.67;3.37;;;22.10;24.50;;;;;;4992947;28;20475;-57
2023/06/04 07:49:06;;;;;;;3.60;2.40;;;22.20;24.80;;;;;;4992977;28;20415;-56
2023/06/04 07:51:32;;;;;;;4.53;2.80;;;22.30;24.50;;;;;;4993007;28;20509;-55
2023/06/04 07:53:58;;;;;;;2.50;1.93;;;22.40;24.00;;;;;;4993400;28;20217;-58
2023/06/04 07:56:23;;;;;;;4.43;2.60;;;22.40;24.20;;;;;;4993093;28;20199;-58
2023/06/04 07:58:49;;;;;;;3.00;2.23;;;22.50;24.60;;;;;;4993076;28;20183;-55
2023/06/04 08:01:15;;;;;;;3.73;2.73;;;22.60;23.50;;;;;;4992718;28;20668;-56
2023/06/04 08:03:41;;;;;;;5.80;2.63;;;22.80;23.60;;;;;;4992802;28;20454;-59
2023/06/04 08:06:07;;;;;;;3.73;1.90;;;22.90;24.20;;;;;;4991851;28;20620;-58
2023/06/04 08:08:36;;;;;;;6.17;2.93;;;23.10;24.30;;;;;;4992821;28;20418;-54
2023/06/04 08:11:02;;;;;;;3.93;1.83;;;23.20;24.10;;;;;;4992492;28;20411;-55
2023/06/04 08:13:28;;;;;;;3.10;2.03;;;23.40;23.30;;;;;;4992742;28;20904;-58
2023/06/04 08:15:54;;;;;;;2.47;1.97;;;23.40;21.60;;;;;;4992583;28;20417;-58
2023/06/04 08:18:20;;;;;;;4.00;2.43;;;23.50;22.50;;;;;;4992765;28;20414;-56
2023/06/04 08:20:45;;;;;;;2.13;1.90;;;23.60;22.60;;;;;;4992658;28;20457;-56
2023/06/04 08:23:11;;;;;;;3.00;1.93;;;23.70;22.60;;;;;;4992666;28;20628;-58
2023/06/04 08:25:37;;;;;;;2.30;1.47;;;23.90;23.70;;;;;;4992715;28;20185;-56
2023/06/04 08:28:03;;;;;;;2.50;1.83;;;24.00;21.50;;;;;;4992845;28;20203;-54
2023/06/04 08:30:29;;;;;;;2.90;1.80;;;24.00;21.70;;;;;;4992550;28;20225;-56
2023/06/04 08:32:55;;;;;;;3.23;1.87;;;24.20;23.00;;;;;;4992542;28;20418;-56
2023/06/04 08:35:21;;;;;;;4.73;1.30;;;24.40;23.20;;;;;;4992657;28;20172;-56
2023/06/04 08:37:46;;;;;;;2.90;1.50;;;24.60;20.70;;;;;;4992544;28;20289;-58
2023/06/04 08:40:12;;;;;;;2.77;1.47;;;24.70;20.90;;;;;;4992543;28;20502;-56
2023/06/04 08:42:44;;;;;;;2.00;1.43;;;24.90;20.80;;;;;;4992719;28;20411;-58
2023/06/04 08:45:15;;;;;;;2.27;1.00;;;25.00;20.90;;;;;;4992572;28;20258;-55
2023/06/04 08:47:51;;;;;;;3.40;1.60;;;25.10;20.80;;;;;;4992317;28;20944;-56
2023/06/04 08:50:22;;;;;;;2.33;1.93;;;25.20;21.00;;;;;;4992026;28;20885;-57
2023/06/04 08:52:56;;;;;;;3.80;2.23;;;25.40;21.00;;;;;;4974887;28;20832;-56
2023/06/04 08:55:22;;;;;;;2.30;1.43;;;25.50;20.00;;;;;;4992410;28;20410;-58
2023/06/04 08:57:51;;;;;;;3.00;1.77;;;25.60;19.80;;;;;;4992457;28;20801;-57
2023/06/04 09:00:18;;;;;;;2.13;1.23;;;25.70;19.10;;;;;;4992021;28;20963;-55
2023/06/04 09:02:46;;;;;;;2.97;1.77;;;25.70;19.40;;;;;;4992474;28;20498;-59
2023/06/04 09:05:24;;;;;;;1.50;1.10;;;25.80;19.40;;;;;;4992379;28;20442;-55
2023/06/04 09:07:56;;;;;;;2.20;1.40;;;25.90;18.10;;;;;;4992296;28;20457;-55
2023/06/04 09:10:25;;;;;;;3.10;1.53;;;26.00;18.80;;;;;;4958909;28;20414;-58
2023/06/04 09:12:51;;;;;;;2.57;1.50;;;26.10;17.60;;;;;;4992186;28;20421;-58
2023/06/04 09:15:17;;;;;;;2.70;1.43;;;26.10;18.00;;;;;;4992257;28;20406;-55
2023/06/04 09:17:43;;;;;;;2.00;1.30;;;26.10;17.20;;;;;;4993742;28;20418;-56
2023/06/04 09:20:22;;;;;;;3.10;1.10;;;26.00;16.70;;;;;;4995954;28;20310;-58
2023/06/04 09:22:48;;;;;;;2.73;1.30;;;26.00;17.50;;;;;;4995678;28;20453;-58
2023/06/04 09:25:27;;;;;;;2.53;1.47;;;26.00;18.10;;;;;;4995773;28;20402;-56
2023/06/04 09:28:06;;;;;;;1.90;1.40;;;26.10;17.50;;;;;;4995832;28;20428;-58
2023/06/04 09:30:31;;;;;;;1.90;1.33;;;26.20;16.00;;;;;;4995490;28;20399;-56
2023/06/04 09:33:09;;;;;;;2.37;1.67;;;26.20;17.40;;;;;;4995368;28;20416;-55
2023/06/04 09:35:35;;;;;;;2.03;1.13;;;26.20;17.00;;;;;;4995554;28;20661;-56
2023/06/04 09:38:01;;;;;;;4.30;1.60;;;26.30;17.60;;;;;;4995677;28;20430;-55
2023/06/04 09:40:38;;;;;;;2.37;1.70;;;26.40;17.20;;;;;;4994451;28;20938;-55
2023/06/04 09:43:04;;;;;;;2.50;1.43;;;26.50;15.20;;;;;;4995267;28;20449;-56
2023/06/04 09:45:31;;;;;;;5.47;1.90;;;26.40;16.20;;;;;;4995364;28;20399;-56
2023/06/04 09:47:58;;;;;;;3.47;1.20;;;26.40;16.60;;;;;;4995284;28;20700;-56
2023/06/04 09:50:30;;;;;;;2.13;1.47;;;26.40;16.70;;;;;;4995231;28;20407;-58
2023/06/04 09:52:56;;;;;;;3.90;2.97;;;26.50;16.60;;;;;;4995186;28;20465;-56
2023/06/04 09:55:22;;;;;;;4.27;1.23;;;26.60;17.60;;;;;;4995299;28;20419;-56
2023/06/04 09:57:50;;;;;;;2.57;1.30;;;26.70;17.10;;;;;;4995343;28;20435;-57
2023/06/04 10:00:18;;;;;;;5.50;2.27;;;26.80;15.80;;;;;;4994744;28;20465;-56
2023/06/04 10:02:46;;;;;;;2.90;1.53;;;26.80;16.60;;;;;;4995064;28;21027;-58
2023/06/04 10:05:14;;;;;;;4.00;2.00;;;26.90;17.40;;;;;;4995040;28;20430;-56
2023/06/04 10:07:42;;;;;;;3.10;1.30;;;26.90;16.50;;;;;;4995231;28;20426;-55
2023/06/04 10:10:13;;;;;;;2.37;1.27;;;27.00;16.90;;;;;;4994762;28;20418;-57
2023/06/04 10:12:40;;;;;;;2.90;1.57;;;27.10;17.50;;;;;;4994912;28;20405;-56
2023/06/04 10:15:11;;;;;;;2.73;1.50;;;27.20;16.70;;;;;;4994875;28;20422;-56
2023/06/04 10:17:38;;;;;;;3.20;1.90;;;27.20;17.40;;;;;;4994885;28;20437;-57
2023/06/04 10:20:05;;;;;;;2.57;1.50;;;27.30;16.90;;;;;;4977063;28;20421;-55
2023/06/04 10:22:32;;;;;;;3.47;1.60;;;27.40;16.90;;;;;;4994631;28;20445;-60
2023/06/04 10:25:03;;;;;;;6.40;2.20;;;27.40;17.20;;;;;;4994702;28;20912;-56
2023/06/04 10:27:30;;;;;;;1.77;1.33;;;27.50;17.30;;;;;;4994830;28;20442;-56
2023/06/04 10:29:57;;;;;;;3.50;1.70;;;27.60;16.90;;;;;;4993339;28;20905;-58
2023/06/04 10:32:27;;;;;;;3.60;1.40;;;27.60;15.50;;;;;;4977051;28;20419;-55
2023/06/04 10:34:53;;;;;;;3.10;1.53;;;27.60;15.50;;;;;;4994753;28;20411;-55
2023/06/04 10:37:23;;;;;;;3.30;1.60;;;27.50;15.30;;;;;;4994452;28;20437;-57
2023/06/04 10:39:56;;;;;;;2.40;1.50;;;27.40;15.50;;;;;;4994154;28;20538;-56
2023/06/04 10:42:23;;;;;;;2.47;1.63;;;27.40;16.50;;;;;;4994530;28;20816;-58
2023/06/04 10:44:51;;;;;;;3.60;1.87;;;27.40;16.70;;;;;;4994366;28;20549;-58
2023/06/04 10:47:19;;;;;;;5.30;1.70;;;27.60;16.70;;;;;;4994311;28;20793;-55
2023/06/04 10:49:45;;;;;;;1.90;1.40;;;27.70;15.90;;;;;;4994055;28;20559;-57
2023/06/04 10:52:11;;;;;;;3.20;1.57;;;27.60;15.20;;;;;;4994023;28;20933;-56
2023/06/04 10:54:37;;;;;;;2.10;1.43;;;27.70;16.60;;;;;;4994104;28;20175;-56
2023/06/04 10:57:13;;;;;;;2.80;1.37;;;27.80;15.90;;;;;;4994031;28;20441;-55
2023/06/04 10:59:39;;;;;;;2.50;1.37;;;27.90;15.40;;;;;;4994163;28;20189;-57
2023/06/04 11:02:06;;;;;;;2.13;1.53;;;27.90;15.80;;;;;;4993938;28;20414;-54
2023/06/04 11:04:32;;;;;;;4.07;1.60;;;28.10;16.70;;;;;;4993961;28;20203;-58
2023/06/04 11:07:08;;;;;;;3.03;1.60;;;28.20;17.10;;;;;;4993843;28;20940;-57
2023/06/04 11:09:47;;;;;;;2.50;1.80;;;28.40;16.80;;;;;;4993696;28;20174;-55
2023/06/04 11:12:12;;;;;;;2.40;1.60;;;28.50;17.00;;;;;;4994127;28;20403;-57
2023/06/04 11:14:39;;;;;;;2.13;1.43;;;28.60;17.20;;;;;;4994043;28;20769;-56
2023/06/04 11:17:12;;;;;;;3.33;1.50;;;28.60;16.30;;;;;;4993755;28;20234;-56
2023/06/04 11:19:38;;;;;;;3.27;1.37;;;28.60;15.50;;;;;;4993471;28;20410;-59
2023/06/04 11:22:05;;;;;;;3.10;1.63;;;28.60;15.70;;;;;;4993640;28;20434;-56
2023/06/04 11:24:32;;;;;;;2.33;1.40;;;28.70;15.50;;;;;;4993495;28;20956;-56
2023/06/04 11:27:02;;;;;;;2.37;1.57;;;28.70;16.30;;;;;;4993600;28;20438;-57
2023/06/04 11:29:28;;;;;;;5.53;1.53;;;28.70;14.90;;;;;;4993233;28;20425;-56
2023/06/04 11:31:54;;;;;;;1.90;1.40;;;28.50;15.80;;;;;;4993233;28;20465;-56
2023/06/04 11:34:30;;;;;;;2.97;1.70;;;28.60;16.40;;;;;;4993312;28;20503;-58
2023/06/04 11:36:56;;;;;;;2.33;1.50;;;28.70;15.90;;;;;;4993648;28;20561;-56
2023/06/04 11:39:22;;;;;;;2.47;1.53;;;28.70;15.40;;;;;;4993317;28;20908;-55
2023/06/04 11:41:51;;;;;;;3.50;1.67;;;28.70;15.30;;;;;;4993298;28;20179;-58
2023/06/04 11:44:19;;;;;;;3.50;1.80;;;28.80;16.10;;;;;;4993012;28;20454;-56
2023/06/04 11:46:45;;;;;;;3.03;1.37;;;29.00;15.10;;;;;;4975473;28;20547;-56
2023/06/04 11:49:18;;;;;;;2.27;1.23;;;29.00;15.90;;;;;;4993009;28;20772;-57
2023/06/04 11:51:48;;;;;;;1.97;1.53;;;29.00;15.60;;;;;;4993267;28;20417;-56
2023/06/04 11:54:18;;;;;;;2.33;1.63;;;29.00;15.60;;;;;;4975848;28;20502;-55
2023/06/04 11:56:46;;;;;;;6.47;2.10;;;29.00;15.10;;;;;;4992823;28;20938;-58
2023/06/04 11:59:16;;;;;;;3.13;1.70;;;29.10;16.30;;;;;;4993082;28;20437;-56
2023/06/04 12:01:46;;;;;;;2.60;1.47;;;29.20;15.80;;;;;;4993260;28;20422;-57
2023/06/04 12:04:13;;;;;;;3.20;1.50;;;29.20;15.80;;;;;;4993083;28;20449;-56
2023/06/04 12:06:50;;;;;;;6.20;1.90;;;29.20;15.00;;;;;;4992722;28;20975;-58
2023/06/04 12:09:21;;;;;;;5.37;1.70;;;29.20;15.80;;;;;;4992961;28;20410;-56
2023/06/04 12:11:47;;;;;;;2.03;1.40;;;29.20;15.70;;;;;;4992975;28;20750;-56
2023/06/04 12:14:20;;;;;;;3.10;1.60;;;29.20;15.40;;;;;;4992729;28;20477;-59
2023/06/04 12:17:02;;;;;;;2.30;1.50;;;29.20;15.80;;;;;;4992737;28;20525;-55
2023/06/04 12:19:28;;;;;;;7.20;1.80;;;29.30;15.90;;;;;;4992629;28;20485;-58
2023/06/04 12:22:02;;;;;;;2.13;1.60;;;29.40;16.30;;;;;;4992647;28;20438;-56
2023/06/04 12:24:28;;;;;;;5.73;1.80;;;29.50;16.20;;;;;;4992787;28;20463;-59
2023/06/04 12:27:11;;;;;;;4.30;1.70;;;29.70;15.60;;;;;;4992668;28;20478;-58
2023/06/04 12:29:37;;;;;;;3.10;2.20;;;29.80;14.20;;;;;;4992484;28;20785;-58
2023/06/04 12:32:08;;;;;;;2.17;1.43;;;29.60;13.70;;;;;;4992558;28;20548;-58
2023/06/04 12:34:40;;;;;;;2.23;1.73;;;29.50;13.50;;;;;;4992704;28;20443;-56
2023/06/04 12:37:07;;;;;;;2.73;1.80;;;29.30;14.30;;;;;;4992570;28;20933;-58
2023/06/04 12:39:36;;;;;;;3.97;2.03;;;29.20;15.20;;;;;;4992659;28;20422;-56
2023/06/04 12:42:08;;;;;;;3.47;1.93;;;29.30;14.60;;;;;;4992545;28;20407;-56
2023/06/04 12:44:36;;;;;;;3.17;2.10;;;29.30;15.50;;;;;;4992440;28;20537;-59
2023/06/04 12:47:02;;;;;;;2.23;1.57;;;29.40;16.10;;;;;;4992521;28;20433;-56